sensor_id;sensor_type;location;lat;lon;timestamp;temperature;humidity
9223;DHT22;7557;51.698;3.942;2022-08-03T00:00:57;21.20;99.90
9223;DHT22;7557;51.698;3.942;2022-08-03T00:03:24;21.20;99.90
9223;DHT22;7557;51.698;3.942;2022-08-03T00:05:51;21.10;99.90
9223;DHT22;7557;51.698;3.942;2022-08-03T00:08:18;21.10;99.90
9223;DHT22;7557;51.698;3.942;2022-08-03T00:10:45;21.00;99.90
9223;DHT22;7557;51.698;3.942;2022-08-03T00:13:12;21.00;99.90
9223;DHT22;7557;51.698;3.942;2022-08-03T00:15:42;21.00;99.90
9223;DHT22;7557;51.698;3.942;2022-08-03T00:18:09;21.00;99.90
9223;DHT22;7557;51.698;3.942;2022-08-03T00:20:36;21.00;99.90
9223;DHT22;7557;51.698;3.942;2022-08-03T00:23:03;21.00;99.90
9223;DHT22;7557;51.698;3.942;2022-08-03T00:25:32;20.90;99.90
9223;DHT22;7557;51.698;3.942;2022-08-03T00:27:59;20.90;99.90
9223;DHT22;7557;51.698;3.942;2022-08-03T00:30:26;20.90;99.90
9223;DHT22;7557;51.698;3.942;2022-08-03T00:32:55;20.90;99.90
9223;DHT22;7557;51.698;3.942;2022-08-03T00:35:22;20.90;99.90
9223;DHT22;7557;51.698;3.942;2022-08-03T00:37:49;20.90;99.90
9223;DHT22;7557;51.698;3.942;2022-08-03T00:40:17;20.90;99.90
9223;DHT22;7557;51.698;3.942;2022-08-03T00:42:50;20.90;99.90
9223;DHT22;7557;51.698;3.942;2022-08-03T00:45:19;20.90;99.90
9223;DHT22;7557;51.698;3.942;2022-08-03T00:47:47;20.90;99.90
9223;DHT22;7557;51.698;3.942;2022-08-03T00:50:17;20.90;99.90
9223;DHT22;7557;51.698;3.942;2022-08-03T00:56:07;20.90;99.90
9223;DHT22;7557;51.698;3.942;2022-08-03T00:58:34;20.80;99.90
9223;DHT22;7557;51.698;3.942;2022-08-03T01:01:01;20.80;99.90
9223;DHT22;7557;51.698;3.942;2022-08-03T01:03:31;20.80;99.90
9223;DHT22;7557;51.698;3.942;2022-08-03T01:06:15;20.80;99.90
9223;DHT22;7557;51.698;3.942;2022-08-03T01:08:47;20.80;99.90
9223;DHT22;7557;51.698;3.942;2022-08-03T01:11:26;20.80;99.90
9223;DHT22;7557;51.698;3.942;2022-08-03T01:14:03;20.70;99.90
9223;DHT22;7557;51.698;3.942;2022-08-03T01:16:36;20.80;99.90
9223;DHT22;7557;51.698;3.942;2022-08-03T01:19:19;20.80;99.90
9223;DHT22;7557;51.698;3.942;2022-08-03T01:21:59;20.70;99.90
9223;DHT22;7557;51.698;3.942;2022-08-03T01:24:36;20.60;99.90
9223;DHT22;7557;51.698;3.942;2022-08-03T01:27:11;20.60;99.90
9223;DHT22;7557;51.698;3.942;2022-08-03T01:29:56;20.50;99.90
9223;DHT22;7557;51.698;3.942;2022-08-03T01:32:30;20.50;99.90
9223;DHT22;7557;51.698;3.942;2022-08-03T01:35:02;20.50;99.90
9223;DHT22;7557;51.698;3.942;2022-08-03T01:37:36;20.50;99.90
9223;DHT22;7557;51.698;3.942;2022-08-03T01:40:05;20.50;99.90
9223;DHT22;7557;51.698;3.942;2022-08-03T01:42:34;20.50;99.90
9223;DHT22;7557;51.698;3.942;2022-08-03T01:45:04;20.50;99.90
9223;DHT22;7557;51.698;3.942;2022-08-03T01:47:33;20.50;99.90
9223;DHT22;7557;51.698;3.942;2022-08-03T01:50:01;20.50;99.90
9223;DHT22;7557;51.698;3.942;2022-08-03T01:52:30;20.50;99.90
9223;DHT22;7557;51.698;3.942;2022-08-03T01:54:58;20.40;99.90
9223;DHT22;7557;51.698;3.942;2022-08-03T01:57:26;20.40;99.90
9223;DHT22;7557;51.698;3.942;2022-08-03T01:59:55;20.40;99.90
9223;DHT22;7557;51.698;3.942;2022-08-03T02:02:24;20.40;99.90
9223;DHT22;7557;51.698;3.942;2022-08-03T02:04:54;20.40;99.90
9223;DHT22;7557;51.698;3.942;2022-08-03T02:07:23;20.40;99.90
9223;DHT22;7557;51.698;3.942;2022-08-03T02:09:53;20.40;99.90
9223;DHT22;7557;51.698;3.942;2022-08-03T02:12:22;20.40;99.90
9223;DHT22;7557;51.698;3.942;2022-08-03T02:14:50;20.40;99.90
9223;DHT22;7557;51.698;3.942;2022-08-03T02:17:18;20.50;99.90
9223;DHT22;7557;51.698;3.942;2022-08-03T02:19:49;20.40;99.90
9223;DHT22;7557;51.698;3.942;2022-08-03T02:22:17;20.40;99.90
9223;DHT22;7557;51.698;3.942;2022-08-03T02:24:44;20.30;99.90
9223;DHT22;7557;51.698;3.942;2022-08-03T02:27:17;20.30;99.90
9223;DHT22;7557;51.698;3.942;2022-08-03T02:29:48;20.30;99.90
9223;DHT22;7557;51.698;3.942;2022-08-03T02:32:20;20.30;99.90
9223;DHT22;7557;51.698;3.942;2022-08-03T02:34:52;20.20;99.90
9223;DHT22;7557;51.698;3.942;2022-08-03T02:37:24;20.20;99.90
9223;DHT22;7557;51.698;3.942;2022-08-03T02:39:55;20.20;99.90
9223;DHT22;7557;51.698;3.942;2022-08-03T02:42:24;20.10;99.90
9223;DHT22;7557;51.698;3.942;2022-08-03T02:44:53;20.10;99.90
9223;DHT22;7557;51.698;3.942;2022-08-03T02:47:21;20.10;99.90
9223;DHT22;7557;51.698;3.942;2022-08-03T02:49:51;20.10;99.90
9223;DHT22;7557;51.698;3.942;2022-08-03T02:52:21;20.10;99.90
9223;DHT22;7557;51.698;3.942;2022-08-03T02:54:52;20.10;99.90
9223;DHT22;7557;51.698;3.942;2022-08-03T02:57:20;20.10;99.90
9223;DHT22;7557;51.698;3.942;2022-08-03T02:59:49;20.10;99.90
9223;DHT22;7557;51.698;3.942;2022-08-03T03:02:18;20.10;99.90
9223;DHT22;7557;51.698;3.942;2022-08-03T03:04:46;20.10;99.90
9223;DHT22;7557;51.698;3.942;2022-08-03T03:07:17;20.20;99.90
9223;DHT22;7557;51.698;3.942;2022-08-03T03:09:46;20.10;99.90
9223;DHT22;7557;51.698;3.942;2022-08-03T03:12:15;20.10;99.90
9223;DHT22;7557;51.698;3.942;2022-08-03T03:14:42;20.00;99.90
9223;DHT22;7557;51.698;3.942;2022-08-03T03:17:11;20.00;99.90
9223;DHT22;7557;51.698;3.942;2022-08-03T03:19:40;20.00;99.90
9223;DHT22;7557;51.698;3.942;2022-08-03T03:22:10;20.00;99.90
9223;DHT22;7557;51.698;3.942;2022-08-03T03:24:39;19.90;99.90
9223;DHT22;7557;51.698;3.942;2022-08-03T03:27:07;19.90;99.90
9223;DHT22;7557;51.698;3.942;2022-08-03T03:29:34;19.90;99.90
9223;DHT22;7557;51.698;3.942;2022-08-03T03:32:02;19.90;99.90
9223;DHT22;7557;51.698;3.942;2022-08-03T03:34:30;19.90;99.90
9223;DHT22;7557;51.698;3.942;2022-08-03T03:36:58;19.90;99.90
9223;DHT22;7557;51.698;3.942;2022-08-03T03:39:25;19.90;99.90
9223;DHT22;7557;51.698;3.942;2022-08-03T03:41:54;19.90;99.90
9223;DHT22;7557;51.698;3.942;2022-08-03T03:44:25;19.90;99.90
9223;DHT22;7557;51.698;3.942;2022-08-03T03:46:53;19.90;99.90
9223;DHT22;7557;51.698;3.942;2022-08-03T03:49:20;19.90;99.90
9223;DHT22;7557;51.698;3.942;2022-08-03T03:51:50;19.80;99.90
9223;DHT22;7557;51.698;3.942;2022-08-03T03:54:18;19.70;99.90
9223;DHT22;7557;51.698;3.942;2022-08-03T03:56:46;19.70;99.90
9223;DHT22;7557;51.698;3.942;2022-08-03T03:59:14;19.80;99.90
9223;DHT22;7557;51.698;3.942;2022-08-03T04:01:41;19.70;99.90
9223;DHT22;7557;51.698;3.942;2022-08-03T04:04:08;19.70;99.90
9223;DHT22;7557;51.698;3.942;2022-08-03T04:06:53;19.70;99.90
9223;DHT22;7557;51.698;3.942;2022-08-03T04:09:39;19.70;99.90
9223;DHT22;7557;51.698;3.942;2022-08-03T04:12:25;19.60;99.90
9223;DHT22;7557;51.698;3.942;2022-08-03T04:14:57;19.60;99.90
9223;DHT22;7557;51.698;3.942;2022-08-03T04:17:27;19.60;99.90
9223;DHT22;7557;51.698;3.942;2022-08-03T04:19:55;19.60;99.90
9223;DHT22;7557;51.698;3.942;2022-08-03T04:22:26;19.60;99.90
9223;DHT22;7557;51.698;3.942;2022-08-03T04:25:00;19.60;99.90
9223;DHT22;7557;51.698;3.942;2022-08-03T04:27:31;19.60;99.90
9223;DHT22;7557;51.698;3.942;2022-08-03T04:30:02;19.60;99.90
9223;DHT22;7557;51.698;3.942;2022-08-03T04:32:30;19.60;99.90
9223;DHT22;7557;51.698;3.942;2022-08-03T04:34:57;19.60;99.90
9223;DHT22;7557;51.698;3.942;2022-08-03T04:37:29;19.60;99.90
9223;DHT22;7557;51.698;3.942;2022-08-03T04:40:01;19.60;99.90
9223;DHT22;7557;51.698;3.942;2022-08-03T04:42:30;19.70;99.90
9223;DHT22;7557;51.698;3.942;2022-08-03T04:45:01;19.70;99.90
9223;DHT22;7557;51.698;3.942;2022-08-03T04:47:29;19.70;99.90
9223;DHT22;7557;51.698;3.942;2022-08-03T04:49:59;19.70;99.90
9223;DHT22;7557;51.698;3.942;2022-08-03T04:52:26;19.70;99.90
9223;DHT22;7557;51.698;3.942;2022-08-03T04:54:53;19.70;99.90
9223;DHT22;7557;51.698;3.942;2022-08-03T04:57:20;19.70;99.90
9223;DHT22;7557;51.698;3.942;2022-08-03T04:59:48;19.80;99.90
9223;DHT22;7557;51.698;3.942;2022-08-03T05:02:20;19.80;99.90
9223;DHT22;7557;51.698;3.942;2022-08-03T05:04:48;19.80;99.90
9223;DHT22;7557;51.698;3.942;2022-08-03T05:07:16;19.90;99.90
9223;DHT22;7557;51.698;3.942;2022-08-03T05:09:44;19.90;99.90
9223;DHT22;7557;51.698;3.942;2022-08-03T05:12:11;19.90;99.90
9223;DHT22;7557;51.698;3.942;2022-08-03T05:14:38;20.00;99.90
9223;DHT22;7557;51.698;3.942;2022-08-03T05:17:06;20.00;99.90
9223;DHT22;7557;51.698;3.942;2022-08-03T05:19:35;20.00;99.90
9223;DHT22;7557;51.698;3.942;2022-08-03T05:22:02;20.00;99.90
9223;DHT22;7557;51.698;3.942;2022-08-03T05:24:29;20.10;99.90
9223;DHT22;7557;51.698;3.942;2022-08-03T05:26:56;20.10;99.90
9223;DHT22;7557;51.698;3.942;2022-08-03T05:29:23;20.10;99.90
9223;DHT22;7557;51.698;3.942;2022-08-03T05:31:50;20.20;99.90
9223;DHT22;7557;51.698;3.942;2022-08-03T05:34:18;20.30;99.90
9223;DHT22;7557;51.698;3.942;2022-08-03T05:36:46;20.30;99.90
9223;DHT22;7557;51.698;3.942;2022-08-03T05:39:13;20.30;99.90
9223;DHT22;7557;51.698;3.942;2022-08-03T05:41:40;20.40;99.90
9223;DHT22;7557;51.698;3.942;2022-08-03T05:44:07;20.40;99.90
9223;DHT22;7557;51.698;3.942;2022-08-03T05:46:34;20.50;99.90
9223;DHT22;7557;51.698;3.942;2022-08-03T05:49:02;20.50;99.90
9223;DHT22;7557;51.698;3.942;2022-08-03T05:51:29;20.50;99.90
9223;DHT22;7557;51.698;3.942;2022-08-03T05:53:57;20.50;99.90
9223;DHT22;7557;51.698;3.942;2022-08-03T05:56:24;20.50;99.90
9223;DHT22;7557;51.698;3.942;2022-08-03T05:58:52;20.60;99.90
9223;DHT22;7557;51.698;3.942;2022-08-03T06:01:20;20.60;99.90
9223;DHT22;7557;51.698;3.942;2022-08-03T06:03:48;20.60;99.90
9223;DHT22;7557;51.698;3.942;2022-08-03T06:06:16;20.60;99.90
9223;DHT22;7557;51.698;3.942;2022-08-03T06:08:45;20.60;99.90
9223;DHT22;7557;51.698;3.942;2022-08-03T06:11:15;20.60;99.90
9223;DHT22;7557;51.698;3.942;2022-08-03T06:13:42;20.60;99.90
9223;DHT22;7557;51.698;3.942;2022-08-03T06:16:09;20.60;99.90
9223;DHT22;7557;51.698;3.942;2022-08-03T06:18:37;20.60;99.90
9223;DHT22;7557;51.698;3.942;2022-08-03T06:21:05;20.60;99.90
9223;DHT22;7557;51.698;3.942;2022-08-03T06:23:32;20.60;99.90
9223;DHT22;7557;51.698;3.942;2022-08-03T06:26:00;20.60;99.90
9223;DHT22;7557;51.698;3.942;2022-08-03T06:28:28;20.60;99.90
9223;DHT22;7557;51.698;3.942;2022-08-03T06:30:55;20.60;99.90
9223;DHT22;7557;51.698;3.942;2022-08-03T06:33:22;20.60;99.90
9223;DHT22;7557;51.698;3.942;2022-08-03T06:35:51;20.70;99.90
9223;DHT22;7557;51.698;3.942;2022-08-03T06:38:18;20.80;99.90
9223;DHT22;7557;51.698;3.942;2022-08-03T06:40:45;20.80;99.90
9223;DHT22;7557;51.698;3.942;2022-08-03T06:43:12;20.90;99.90
9223;DHT22;7557;51.698;3.942;2022-08-03T06:45:41;20.90;99.90
9223;DHT22;7557;51.698;3.942;2022-08-03T06:48:10;21.00;99.90
9223;DHT22;7557;51.698;3.942;2022-08-03T06:50:40;21.10;99.90
9223;DHT22;7557;51.698;3.942;2022-08-03T06:53:09;21.10;99.90
9223;DHT22;7557;51.698;3.942;2022-08-03T06:55:36;21.10;99.90
9223;DHT22;7557;51.698;3.942;2022-08-03T06:58:03;21.20;99.90
9223;DHT22;7557;51.698;3.942;2022-08-03T07:00:30;21.20;99.90
9223;DHT22;7557;51.698;3.942;2022-08-03T07:02:59;21.30;99.90
9223;DHT22;7557;51.698;3.942;2022-08-03T07:05:26;21.30;99.90
9223;DHT22;7557;51.698;3.942;2022-08-03T07:07:54;21.40;99.90
9223;DHT22;7557;51.698;3.942;2022-08-03T07:10:23;21.40;99.90
9223;DHT22;7557;51.698;3.942;2022-08-03T07:12:52;21.50;99.90
9223;DHT22;7557;51.698;3.942;2022-08-03T07:15:19;21.60;99.90
9223;DHT22;7557;51.698;3.942;2022-08-03T07:17:46;21.70;99.90
9223;DHT22;7557;51.698;3.942;2022-08-03T07:20:15;21.70;99.90
9223;DHT22;7557;51.698;3.942;2022-08-03T07:22:43;21.70;99.90
9223;DHT22;7557;51.698;3.942;2022-08-03T07:25:10;21.80;99.90
9223;DHT22;7557;51.698;3.942;2022-08-03T07:27:37;21.90;99.90
9223;DHT22;7557;51.698;3.942;2022-08-03T07:30:09;21.90;99.90
9223;DHT22;7557;51.698;3.942;2022-08-03T07:32:36;22.00;99.90
9223;DHT22;7557;51.698;3.942;2022-08-03T07:35:04;22.10;99.90
9223;DHT22;7557;51.698;3.942;2022-08-03T07:37:33;22.20;99.90
9223;DHT22;7557;51.698;3.942;2022-08-03T07:40:02;22.30;99.90
9223;DHT22;7557;51.698;3.942;2022-08-03T07:42:30;22.50;99.90
9223;DHT22;7557;51.698;3.942;2022-08-03T07:44:58;22.60;99.90
9223;DHT22;7557;51.698;3.942;2022-08-03T07:47:26;22.70;99.90
9223;DHT22;7557;51.698;3.942;2022-08-03T07:49:54;22.80;99.90
9223;DHT22;7557;51.698;3.942;2022-08-03T07:52:21;22.90;99.90
9223;DHT22;7557;51.698;3.942;2022-08-03T07:55:08;23.00;99.90
9223;DHT22;7557;51.698;3.942;2022-08-03T07:57:36;23.10;99.90
9223;DHT22;7557;51.698;3.942;2022-08-03T08:00:05;23.30;99.90
9223;DHT22;7557;51.698;3.942;2022-08-03T08:02:33;23.50;99.90
9223;DHT22;7557;51.698;3.942;2022-08-03T08:05:01;23.50;99.90
9223;DHT22;7557;51.698;3.942;2022-08-03T08:07:28;23.60;99.90
9223;DHT22;7557;51.698;3.942;2022-08-03T08:09:55;23.60;99.90
9223;DHT22;7557;51.698;3.942;2022-08-03T08:12:23;23.70;99.90
9223;DHT22;7557;51.698;3.942;2022-08-03T08:14:51;23.70;99.90
9223;DHT22;7557;51.698;3.942;2022-08-03T08:17:18;23.70;99.90
9223;DHT22;7557;51.698;3.942;2022-08-03T08:19:45;23.70;99.90
9223;DHT22;7557;51.698;3.942;2022-08-03T08:22:12;23.80;99.90
9223;DHT22;7557;51.698;3.942;2022-08-03T08:24:40;23.80;99.90
9223;DHT22;7557;51.698;3.942;2022-08-03T08:27:09;23.90;99.90
9223;DHT22;7557;51.698;3.942;2022-08-03T08:29:38;24.00;99.90
9223;DHT22;7557;51.698;3.942;2022-08-03T08:32:05;24.00;99.90
9223;DHT22;7557;51.698;3.942;2022-08-03T08:34:33;24.10;99.90
9223;DHT22;7557;51.698;3.942;2022-08-03T08:37:00;24.20;99.90
9223;DHT22;7557;51.698;3.942;2022-08-03T08:39:28;24.20;99.90
9223;DHT22;7557;51.698;3.942;2022-08-03T08:41:55;24.20;99.90
9223;DHT22;7557;51.698;3.942;2022-08-03T08:44:22;24.20;99.90
9223;DHT22;7557;51.698;3.942;2022-08-03T08:46:52;24.20;99.90
9223;DHT22;7557;51.698;3.942;2022-08-03T08:49:22;24.30;99.90
9223;DHT22;7557;51.698;3.942;2022-08-03T08:51:53;24.40;99.90
9223;DHT22;7557;51.698;3.942;2022-08-03T08:54:21;24.50;99.90
9223;DHT22;7557;51.698;3.942;2022-08-03T08:56:50;24.70;99.90
9223;DHT22;7557;51.698;3.942;2022-08-03T08:59:18;25.00;99.90
9223;DHT22;7557;51.698;3.942;2022-08-03T09:01:46;25.10;99.90
9223;DHT22;7557;51.698;3.942;2022-08-03T09:04:14;25.10;99.90
9223;DHT22;7557;51.698;3.942;2022-08-03T09:06:41;25.10;99.90
9223;DHT22;7557;51.698;3.942;2022-08-03T09:09:09;25.00;99.90
9223;DHT22;7557;51.698;3.942;2022-08-03T09:11:36;25.00;99.90
9223;DHT22;7557;51.698;3.942;2022-08-03T09:14:03;24.90;99.90
9223;DHT22;7557;51.698;3.942;2022-08-03T09:16:30;24.90;99.90
9223;DHT22;7557;51.698;3.942;2022-08-03T09:19:10;25.00;99.90
9223;DHT22;7557;51.698;3.942;2022-08-03T09:21:39;25.10;99.90
9223;DHT22;7557;51.698;3.942;2022-08-03T09:24:06;25.20;99.90
9223;DHT22;7557;51.698;3.942;2022-08-03T09:26:35;25.20;99.90
9223;DHT22;7557;51.698;3.942;2022-08-03T09:29:04;25.20;99.90
9223;DHT22;7557;51.698;3.942;2022-08-03T09:31:33;25.30;99.90
9223;DHT22;7557;51.698;3.942;2022-08-03T09:34:02;25.40;99.90
9223;DHT22;7557;51.698;3.942;2022-08-03T09:36:33;25.50;99.90
9223;DHT22;7557;51.698;3.942;2022-08-03T09:39:03;25.50;99.90
9223;DHT22;7557;51.698;3.942;2022-08-03T09:41:31;25.60;99.90
9223;DHT22;7557;51.698;3.942;2022-08-03T09:43:59;25.70;99.90
9223;DHT22;7557;51.698;3.942;2022-08-03T09:46:26;25.80;99.90
9223;DHT22;7557;51.698;3.942;2022-08-03T09:49:11;25.90;99.90
9223;DHT22;7557;51.698;3.942;2022-08-03T09:51:39;25.90;99.90
9223;DHT22;7557;51.698;3.942;2022-08-03T09:54:08;26.00;99.90
9223;DHT22;7557;51.698;3.942;2022-08-03T09:56:39;26.10;99.90
9223;DHT22;7557;51.698;3.942;2022-08-03T09:59:07;26.30;99.90
9223;DHT22;7557;51.698;3.942;2022-08-03T10:01:35;26.40;99.90
9223;DHT22;7557;51.698;3.942;2022-08-03T10:04:03;26.40;99.90
9223;DHT22;7557;51.698;3.942;2022-08-03T10:06:30;26.60;99.90
9223;DHT22;7557;51.698;3.942;2022-08-03T10:09:07;26.70;99.90
9223;DHT22;7557;51.698;3.942;2022-08-03T10:11:35;26.90;99.90
9223;DHT22;7557;51.698;3.942;2022-08-03T10:14:06;27.00;99.90
9223;DHT22;7557;51.698;3.942;2022-08-03T10:16:35;27.20;99.90
9223;DHT22;7557;51.698;3.942;2022-08-03T10:19:03;27.20;99.90
9223;DHT22;7557;51.698;3.942;2022-08-03T10:21:33;27.20;99.90
9223;DHT22;7557;51.698;3.942;2022-08-03T10:24:05;27.10;99.90
9223;DHT22;7557;51.698;3.942;2022-08-03T10:26:37;27.20;99.90
9223;DHT22;7557;51.698;3.942;2022-08-03T10:29:08;27.30;99.90
9223;DHT22;7557;51.698;3.942;2022-08-03T10:31:38;27.40;99.90
9223;DHT22;7557;51.698;3.942;2022-08-03T10:34:13;27.50;99.90
9223;DHT22;7557;51.698;3.942;2022-08-03T10:36:44;27.50;99.90
9223;DHT22;7557;51.698;3.942;2022-08-03T10:39:18;27.50;99.90
9223;DHT22;7557;51.698;3.942;2022-08-03T10:41:49;27.60;99.90
9223;DHT22;7557;51.698;3.942;2022-08-03T10:44:20;27.70;99.90
9223;DHT22;7557;51.698;3.942;2022-08-03T10:46:50;27.70;99.90
9223;DHT22;7557;51.698;3.942;2022-08-03T10:49:18;27.80;99.90
9223;DHT22;7557;51.698;3.942;2022-08-03T10:51:46;27.80;99.90
9223;DHT22;7557;51.698;3.942;2022-08-03T10:54:39;27.90;99.90
9223;DHT22;7557;51.698;3.942;2022-08-03T10:57:49;28.00;99.90
9223;DHT22;7557;51.698;3.942;2022-08-03T11:00:16;28.00;99.90
9223;DHT22;7557;51.698;3.942;2022-08-03T11:03:04;28.10;99.90
9223;DHT22;7557;51.698;3.942;2022-08-03T11:05:35;28.20;99.90
9223;DHT22;7557;51.698;3.942;2022-08-03T11:08:20;28.20;99.90
9223;DHT22;7557;51.698;3.942;2022-08-03T11:10:48;28.20;99.90
9223;DHT22;7557;51.698;3.942;2022-08-03T11:13:19;28.10;99.90
9223;DHT22;7557;51.698;3.942;2022-08-03T11:15:49;28.20;99.90
9223;DHT22;7557;51.698;3.942;2022-08-03T11:18:16;28.20;99.90
9223;DHT22;7557;51.698;3.942;2022-08-03T11:20:46;28.10;99.90
9223;DHT22;7557;51.698;3.942;2022-08-03T11:23:14;28.10;99.90
9223;DHT22;7557;51.698;3.942;2022-08-03T11:26:07;28.20;99.90
9223;DHT22;7557;51.698;3.942;2022-08-03T11:28:36;28.20;99.90
9223;DHT22;7557;51.698;3.942;2022-08-03T11:31:43;28.20;99.90
9223;DHT22;7557;51.698;3.942;2022-08-03T11:34:12;28.40;99.90
9223;DHT22;7557;51.698;3.942;2022-08-03T11:39:45;28.50;99.90
9223;DHT22;7557;51.698;3.942;2022-08-03T11:45:20;28.70;99.90
9223;DHT22;7557;51.698;3.942;2022-08-03T11:47:48;28.80;99.90
9223;DHT22;7557;51.698;3.942;2022-08-03T11:50:19;28.90;99.90
9223;DHT22;7557;51.698;3.942;2022-08-03T11:52:49;29.00;99.90
9223;DHT22;7557;51.698;3.942;2022-08-03T11:55:17;29.00;99.90
9223;DHT22;7557;51.698;3.942;2022-08-03T11:57:47;29.10;99.90
9223;DHT22;7557;51.698;3.942;2022-08-03T12:00:27;29.10;99.80
9223;DHT22;7557;51.698;3.942;2022-08-03T12:03:03;29.20;99.60
9223;DHT22;7557;51.698;3.942;2022-08-03T12:05:43;29.20;99.50
9223;DHT22;7557;51.698;3.942;2022-08-03T12:08:11;29.20;99.70
9223;DHT22;7557;51.698;3.942;2022-08-03T12:10:40;29.20;99.90
9223;DHT22;7557;51.698;3.942;2022-08-03T12:13:12;29.20;99.80
9223;DHT22;7557;51.698;3.942;2022-08-03T12:15:41;29.30;99.80
9223;DHT22;7557;51.698;3.942;2022-08-03T12:18:15;29.40;99.60
9223;DHT22;7557;51.698;3.942;2022-08-03T12:20:43;29.50;99.30
9223;DHT22;7557;51.698;3.942;2022-08-03T12:23:11;29.50;99.20
9223;DHT22;7557;51.698;3.942;2022-08-03T12:25:40;29.50;99.00
9223;DHT22;7557;51.698;3.942;2022-08-03T12:28:11;29.50;98.80
9223;DHT22;7557;51.698;3.942;2022-08-03T12:30:43;29.60;98.80
9223;DHT22;7557;51.698;3.942;2022-08-03T12:33:13;29.60;99.00
9223;DHT22;7557;51.698;3.942;2022-08-03T12:35:41;29.50;98.80
9223;DHT22;7557;51.698;3.942;2022-08-03T12:38:09;29.60;98.70
9223;DHT22;7557;51.698;3.942;2022-08-03T12:40:37;29.60;98.90
9223;DHT22;7557;51.698;3.942;2022-08-03T12:43:12;29.70;98.70
9223;DHT22;7557;51.698;3.942;2022-08-03T12:45:39;29.70;98.40
9223;DHT22;7557;51.698;3.942;2022-08-03T12:48:11;29.80;98.10
9223;DHT22;7557;51.698;3.942;2022-08-03T12:50:39;29.80;97.70
9223;DHT22;7557;51.698;3.942;2022-08-03T12:53:08;29.90;97.40
9223;DHT22;7557;51.698;3.942;2022-08-03T12:55:36;30.00;97.50
9223;DHT22;7557;51.698;3.942;2022-08-03T12:58:06;30.10;97.20
9223;DHT22;7557;51.698;3.942;2022-08-03T13:00:35;30.10;97.10
9223;DHT22;7557;51.698;3.942;2022-08-03T13:03:04;30.20;97.00
9223;DHT22;7557;51.698;3.942;2022-08-03T13:05:42;30.20;97.00
9223;DHT22;7557;51.698;3.942;2022-08-03T13:08:17;30.30;96.80
9223;DHT22;7557;51.698;3.942;2022-08-03T13:10:45;30.20;96.70
9223;DHT22;7557;51.698;3.942;2022-08-03T13:13:13;30.20;96.60
9223;DHT22;7557;51.698;3.942;2022-08-03T13:15:40;30.10;96.60
9223;DHT22;7557;51.698;3.942;2022-08-03T13:18:07;30.00;96.80
9223;DHT22;7557;51.698;3.942;2022-08-03T13:20:36;30.00;96.90
9223;DHT22;7557;51.698;3.942;2022-08-03T13:23:03;30.10;96.80
9223;DHT22;7557;51.698;3.942;2022-08-03T13:25:30;30.10;96.80
9223;DHT22;7557;51.698;3.942;2022-08-03T13:27:58;30.20;96.60
9223;DHT22;7557;51.698;3.942;2022-08-03T13:30:25;30.30;96.50
9223;DHT22;7557;51.698;3.942;2022-08-03T13:32:52;30.30;96.20
9223;DHT22;7557;51.698;3.942;2022-08-03T13:35:19;30.30;96.00
9223;DHT22;7557;51.698;3.942;2022-08-03T13:37:48;30.30;96.00
9223;DHT22;7557;51.698;3.942;2022-08-03T13:40:15;30.30;95.70
9223;DHT22;7557;51.698;3.942;2022-08-03T13:42:42;30.30;95.70
9223;DHT22;7557;51.698;3.942;2022-08-03T13:45:09;30.30;95.70
9223;DHT22;7557;51.698;3.942;2022-08-03T13:47:36;30.20;95.70
9223;DHT22;7557;51.698;3.942;2022-08-03T13:50:04;30.10;95.90
9223;DHT22;7557;51.698;3.942;2022-08-03T13:52:33;30.10;95.60
9223;DHT22;7557;51.698;3.942;2022-08-03T13:55:05;30.20;95.40
9223;DHT22;7557;51.698;3.942;2022-08-03T13:57:32;30.20;95.50
9223;DHT22;7557;51.698;3.942;2022-08-03T14:00:00;30.30;95.20
9223;DHT22;7557;51.698;3.942;2022-08-03T14:02:27;30.20;94.70
9223;DHT22;7557;51.698;3.942;2022-08-03T14:04:54;30.20;95.00
9223;DHT22;7557;51.698;3.942;2022-08-03T14:07:21;30.20;94.80
9223;DHT22;7557;51.698;3.942;2022-08-03T14:09:48;30.20;94.90
9223;DHT22;7557;51.698;3.942;2022-08-03T14:12:17;30.10;94.90
9223;DHT22;7557;51.698;3.942;2022-08-03T14:14:44;30.10;94.90
9223;DHT22;7557;51.698;3.942;2022-08-03T14:17:11;30.10;94.80
9223;DHT22;7557;51.698;3.942;2022-08-03T14:19:38;30.00;95.20
9223;DHT22;7557;51.698;3.942;2022-08-03T14:22:06;30.00;94.60
9223;DHT22;7557;51.698;3.942;2022-08-03T14:24:33;29.90;94.60
9223;DHT22;7557;51.698;3.942;2022-08-03T14:27:00;29.80;95.00
9223;DHT22;7557;51.698;3.942;2022-08-03T14:29:29;29.70;95.20
9223;DHT22;7557;51.698;3.942;2022-08-03T14:31:56;29.70;95.10
9223;DHT22;7557;51.698;3.942;2022-08-03T14:34:23;29.70;95.00
9223;DHT22;7557;51.698;3.942;2022-08-03T14:36:50;29.70;95.20
9223;DHT22;7557;51.698;3.942;2022-08-03T14:39:17;29.70;95.00
9223;DHT22;7557;51.698;3.942;2022-08-03T14:41:44;29.80;95.10
9223;DHT22;7557;51.698;3.942;2022-08-03T14:44:11;29.80;95.10
9223;DHT22;7557;51.698;3.942;2022-08-03T14:46:40;29.80;95.20
9223;DHT22;7557;51.698;3.942;2022-08-03T14:49:07;29.80;95.20
9223;DHT22;7557;51.698;3.942;2022-08-03T14:51:35;29.80;95.30
9223;DHT22;7557;51.698;3.942;2022-08-03T14:54:02;29.80;95.20
9223;DHT22;7557;51.698;3.942;2022-08-03T14:56:29;29.90;94.90
9223;DHT22;7557;51.698;3.942;2022-08-03T14:58:57;30.00;94.80
9223;DHT22;7557;51.698;3.942;2022-08-03T15:01:24;30.00;94.80
9223;DHT22;7557;51.698;3.942;2022-08-03T15:03:52;30.00;94.70
9223;DHT22;7557;51.698;3.942;2022-08-03T15:06:20;30.10;94.50
9223;DHT22;7557;51.698;3.942;2022-08-03T15:08:47;30.00;94.70
9223;DHT22;7557;51.698;3.942;2022-08-03T15:11:14;30.10;94.70
9223;DHT22;7557;51.698;3.942;2022-08-03T15:13:41;30.10;94.70
9223;DHT22;7557;51.698;3.942;2022-08-03T15:16:09;30.10;94.50
9223;DHT22;7557;51.698;3.942;2022-08-03T15:18:36;30.10;94.50
9223;DHT22;7557;51.698;3.942;2022-08-03T15:21:05;30.10;94.60
9223;DHT22;7557;51.698;3.942;2022-08-03T15:23:32;30.10;94.80
9223;DHT22;7557;51.698;3.942;2022-08-03T15:26:00;30.00;94.80
9223;DHT22;7557;51.698;3.942;2022-08-03T15:28:27;30.00;95.00
9223;DHT22;7557;51.698;3.942;2022-08-03T15:30:55;30.00;95.00
9223;DHT22;7557;51.698;3.942;2022-08-03T15:33:22;30.00;95.00
9223;DHT22;7557;51.698;3.942;2022-08-03T15:35:49;30.00;95.10
9223;DHT22;7557;51.698;3.942;2022-08-03T15:38:19;30.00;95.10
9223;DHT22;7557;51.698;3.942;2022-08-03T15:40:47;30.10;95.10
9223;DHT22;7557;51.698;3.942;2022-08-03T15:43:14;30.00;95.00
9223;DHT22;7557;51.698;3.942;2022-08-03T15:45:42;30.00;95.00
9223;DHT22;7557;51.698;3.942;2022-08-03T15:48:09;30.00;95.10
9223;DHT22;7557;51.698;3.942;2022-08-03T15:50:36;30.00;95.20
9223;DHT22;7557;51.698;3.942;2022-08-03T15:53:04;30.00;95.30
9223;DHT22;7557;51.698;3.942;2022-08-03T15:55:32;29.90;95.20
9223;DHT22;7557;51.698;3.942;2022-08-03T15:57:59;29.90;95.00
9223;DHT22;7557;51.698;3.942;2022-08-03T16:00:26;29.90;95.30
9223;DHT22;7557;51.698;3.942;2022-08-03T16:02:55;29.90;95.30
9223;DHT22;7557;51.698;3.942;2022-08-03T16:05:24;30.00;95.20
9223;DHT22;7557;51.698;3.942;2022-08-03T16:07:51;30.00;95.30
9223;DHT22;7557;51.698;3.942;2022-08-03T16:10:19;30.00;95.40
9223;DHT22;7557;51.698;3.942;2022-08-03T16:12:48;30.00;95.60
9223;DHT22;7557;51.698;3.942;2022-08-03T16:15:15;30.00;95.50
9223;DHT22;7557;51.698;3.942;2022-08-03T16:17:42;30.00;95.20
9223;DHT22;7557;51.698;3.942;2022-08-03T16:20:11;30.10;95.00
9223;DHT22;7557;51.698;3.942;2022-08-03T16:22:43;30.10;94.80
9223;DHT22;7557;51.698;3.942;2022-08-03T16:25:11;30.00;94.80